Time;durP1;ratioP1;P1;durP2;ratioP2;P2;SDS_P1;SDS_P2;PMS_P1;PMS_P2;Temp;Humidity;BMP_temperature;BMP_pressure;BME280_temperature;BME280_humidity;BME280_pressure;Samples;Min_cycle;Max_cycle;Signal;HPM_P1;HPM_P2
2021/08/08 00:01:49;;;;;;;1.00;0.90;;;16.60;90.60;;;;;;5059505;28;20894;-83
2021/08/08 00:04:16;;;;;;;3.23;1.10;;;16.40;91.30;;;;;;5058303;28;20981;-83
2021/08/08 00:06:43;;;;;;;1.47;1.37;;;16.40;92.10;;;;;;5058505;28;20442;-84
2021/08/08 00:09:10;;;;;;;1.47;1.20;;;16.40;92.30;;;;;;5061997;28;20574;-83
2021/08/08 00:11:38;;;;;;;1.43;1.00;;;16.40;92.70;;;;;;5058472;28;20476;-83
2021/08/08 00:14:07;;;;;;;1.20;1.10;;;16.40;93.10;;;;;;5058272;28;20464;-84
2021/08/08 00:16:34;;;;;;;2.20;1.10;;;16.50;93.30;;;;;;5063903;28;20989;-83
2021/08/08 00:19:01;;;;;;;2.23;1.10;;;16.50;93.60;;;;;;5063108;28;20454;-84
2021/08/08 00:21:28;;;;;;;1.20;1.10;;;16.50;93.90;;;;;;5061409;28;21033;-83
2021/08/08 00:23:55;;;;;;;2.70;1.38;;;16.50;94.00;;;;;;5062831;28;20494;-83
2021/08/08 00:26:22;;;;;;;1.63;1.50;;;16.50;94.00;;;;;;5061324;28;20291;-83
2021/08/08 00:28:49;;;;;;;3.17;1.43;;;16.50;94.00;;;;;;5058636;28;20576;-83
2021/08/08 00:31:22;;;;;;;1.50;1.10;;;16.50;94.70;;;;;;5058233;28;20481;-83
2021/08/08 00:33:50;;;;;;;2.00;1.13;;;16.40;94.70;;;;;;5058776;28;20911;-83
2021/08/08 00:36:17;;;;;;;4.70;1.43;;;16.40;94.90;;;;;;5058492;28;20481;-83
2021/08/08 00:38:43;;;;;;;1.23;1.13;;;16.40;95.00;;;;;;5060830;28;20552;-81
2021/08/08 00:41:10;;;;;;;1.10;1.00;;;16.40;94.80;;;;;;5073045;28;20485;-80
2021/08/08 00:43:37;;;;;;;2.00;1.10;;;16.30;94.70;;;;;;5074131;28;20445;-83
2021/08/08 00:46:04;;;;;;;2.43;1.23;;;16.30;94.50;;;;;;5074283;28;20438;-79
2021/08/08 00:48:33;;;;;;;1.90;0.90;;;16.30;94.50;;;;;;5079509;28;20458;-81
2021/08/08 00:51:00;;;;;;;0.80;0.80;;;16.30;94.60;;;;;;5079613;28;20493;-81
2021/08/08 00:53:28;;;;;;;1.23;1.07;;;16.30;94.30;;;;;;5079440;28;20460;-80
2021/08/08 00:55:55;;;;;;;2.67;1.13;;;16.30;94.10;;;;;;5079742;28;20442;-81
2021/08/08 00:58:22;;;;;;;1.13;0.80;;;16.30;94.10;;;;;;5077438;28;20441;-82
2021/08/08 01:00:50;;;;;;;2.40;1.00;;;16.30;93.90;;;;;;5058123;28;20562;-82
2021/08/08 01:03:18;;;;;;;1.00;1.00;;;16.30;93.90;;;;;;5058785;28;20491;-82
2021/08/08 01:05:50;;;;;;;1.50;1.07;;;16.20;93.80;;;;;;5058022;28;20456;-83
2021/08/08 01:08:21;;;;;;;1.40;1.03;;;16.20;94.40;;;;;;5057687;28;21001;-83
2021/08/08 01:10:48;;;;;;;1.57;1.30;;;16.10;94.40;;;;;;5057921;28;20499;-83
2021/08/08 01:13:16;;;;;;;1.70;1.10;;;16.10;94.80;;;;;;5057559;28;20811;-84
2021/08/08 01:15:44;;;;;;;1.00;0.90;;;16.20;94.80;;;;;;5057928;28;20522;-84
2021/08/08 01:18:14;;;;;;;1.43;0.90;;;16.20;94.40;;;;;;5057376;28;20498;-83
2021/08/08 01:20:42;;;;;;;1.00;0.90;;;16.20;93.90;;;;;;5061000;28;21007;-83
2021/08/08 01:23:13;;;;;;;1.23;1.03;;;16.30;93.90;;;;;;5057077;28;20470;-84
2021/08/08 01:25:45;;;;;;;1.23;0.97;;;16.20;93.30;;;;;;5058660;28;20547;-84
2021/08/08 01:28:13;;;;;;;1.30;1.20;;;16.30;93.20;;;;;;5061038;28;20826;-83
2021/08/08 01:30:40;;;;;;;1.67;1.00;;;16.20;93.50;;;;;;5058850;28;20233;-83
2021/08/08 01:33:09;;;;;;;1.50;1.20;;;16.20;93.30;;;;;;5061022;28;20462;-83
2021/08/08 01:35:36;;;;;;;1.05;0.90;;;16.20;93.30;;;;;;5057148;28;20446;-82
2021/08/08 01:38:03;;;;;;;2.00;1.70;;;16.20;93.20;;;;;;5057374;28;20298;-83
2021/08/08 01:40:36;;;;;;;1.90;1.00;;;16.20;92.90;;;;;;5057043;28;20575;-81
2021/08/08 01:43:09;;;;;;;1.07;0.80;;;16.20;93.00;;;;;;5061038;28;20508;-83
2021/08/08 01:45:38;;;;;;;2.42;1.10;;;16.20;93.30;;;;;;5060375;28;20451;-83
2021/08/08 01:48:08;;;;;;;1.43;1.20;;;16.20;93.40;;;;;;5071654;28;20209;-84
2021/08/08 01:50:36;;;;;;;2.50;1.00;;;16.20;93.70;;;;;;5076136;28;20503;-83
2021/08/08 01:53:03;;;;;;;2.90;1.10;;;16.30;93.20;;;;;;5077064;28;20442;-82
2021/08/08 01:55:31;;;;;;;3.50;2.00;;;16.20;93.50;;;;;;5064743;28;20454;-83
2021/08/08 01:57:59;;;;;;;1.53;1.00;;;16.20;93.80;;;;;;5060215;28;20494;-84
2021/08/08 02:00:28;;;;;;;1.38;1.27;;;16.10;93.80;;;;;;5058721;28;20461;-83
2021/08/08 02:02:58;;;;;;;3.53;1.30;;;16.10;94.50;;;;;;5055730;28;20301;-83
2021/08/08 02:05:27;;;;;;;1.47;1.33;;;16.10;94.40;;;;;;5055501;28;20479;-83
2021/08/08 02:07:54;;;;;;;2.90;1.40;;;16.00;94.80;;;;;;5055382;28;20493;-83
2021/08/08 02:10:21;;;;;;;1.20;1.10;;;16.00;95.30;;;;;;5054930;28;20306;-83
2021/08/08 02:12:47;;;;;;;2.50;1.30;;;16.00;95.60;;;;;;5055458;28;20542;-84
2021/08/08 02:15:15;;;;;;;1.40;1.30;;;16.00;95.60;;;;;;5055553;28;20459;-83
2021/08/08 02:17:43;;;;;;;1.38;1.27;;;16.00;96.00;;;;;;5055338;28;20515;-84
2021/08/08 02:20:15;;;;;;;2.35;1.50;;;16.00;96.50;;;;;;5055757;28;20292;-83
2021/08/08 02:22:43;;;;;;;3.63;1.10;;;15.90;96.80;;;;;;5057595;28;20680;-84
2021/08/08 02:25:10;;;;;;;1.93;1.30;;;15.90;97.00;;;;;;5067058;28;20486;-82
2021/08/08 02:27:37;;;;;;;1.40;1.10;;;15.90;97.30;;;;;;5070574;28;20459;-82
2021/08/08 02:30:06;;;;;;;1.40;1.30;;;16.00;97.40;;;;;;5071345;28;20275;-84
2021/08/08 02:32:33;;;;;;;3.07;1.70;;;16.00;97.40;;;;;;5060870;28;20455;-80
2021/08/08 02:35:02;;;;;;;4.73;1.40;;;16.10;96.70;;;;;;5077252;28;20449;-81
2021/08/08 02:37:28;;;;;;;1.53;1.43;;;16.20;95.70;;;;;;5077756;28;20438;-80
2021/08/08 02:39:55;;;;;;;2.00;1.10;;;16.20;95.20;;;;;;5077553;28;20461;-81
2021/08/08 02:42:22;;;;;;;2.00;1.40;;;16.20;94.60;;;;;;5077450;28;20467;-81
2021/08/08 02:44:49;;;;;;;1.30;1.20;;;16.30;93.90;;;;;;5077705;28;20435;-80
2021/08/08 02:47:16;;;;;;;1.10;1.10;;;16.30;93.40;;;;;;5077784;28;20443;-80
2021/08/08 02:49:43;;;;;;;1.47;1.30;;;16.30;92.80;;;;;;5077427;28;20498;-80
2021/08/08 02:52:11;;;;;;;1.60;1.20;;;16.30;92.70;;;;;;5077077;28;20553;-82
2021/08/08 02:54:39;;;;;;;1.15;1.05;;;16.30;92.50;;;;;;5077244;28;20447;-81
2021/08/08 02:57:06;;;;;;;2.00;1.00;;;16.20;92.50;;;;;;5069335;28;20215;-83
2021/08/08 02:59:35;;;;;;;2.20;1.27;;;16.20;92.70;;;;;;5059449;28;20448;-82
2021/08/08 03:02:02;;;;;;;2.30;1.20;;;16.10;92.60;;;;;;5065670;28;20532;-81
2021/08/08 03:04:30;;;;;;;3.03;1.37;;;16.10;92.30;;;;;;5076502;28;20442;-83
2021/08/08 03:06:57;;;;;;;3.63;1.17;;;16.10;92.40;;;;;;5077498;28;20413;-80
2021/08/08 03:09:25;;;;;;;3.07;1.10;;;16.00;92.80;;;;;;5077288;28;20474;-80
2021/08/08 03:11:52;;;;;;;3.77;1.33;;;16.10;92.80;;;;;;5077523;28;20736;-80
2021/08/08 03:14:20;;;;;;;4.15;1.60;;;16.00;92.40;;;;;;5077474;28;20405;-80
2021/08/08 03:16:48;;;;;;;2.73;1.33;;;16.00;92.50;;;;;;5076520;28;20227;-80
2021/08/08 03:19:16;;;;;;;2.25;1.25;;;16.10;92.50;;;;;;5072957;28;20446;-83
2021/08/08 03:21:44;;;;;;;1.73;1.40;;;16.10;91.90;;;;;;5065474;28;20287;-82
2021/08/08 03:24:11;;;;;;;2.40;1.40;;;16.10;91.20;;;;;;5069099;28;20469;-83
2021/08/08 03:26:39;;;;;;;4.00;1.33;;;16.20;90.90;;;;;;5060760;28;20489;-84
2021/08/08 03:29:06;;;;;;;4.63;1.25;;;16.20;90.10;;;;;;5065253;28;20524;-83
2021/08/08 03:31:33;;;;;;;2.50;1.23;;;16.20;89.40;;;;;;5065462;28;20236;-84
2021/08/08 03:34:00;;;;;;;2.85;1.23;;;16.30;88.90;;;;;;5071093;28;20831;-83
2021/08/08 03:36:27;;;;;;;1.40;1.02;;;16.20;89.00;;;;;;5063110;28;20635;-83
2021/08/08 03:38:54;;;;;;;1.77;1.57;;;16.20;90.10;;;;;;5062110;28;20497;-83
2021/08/08 03:41:21;;;;;;;3.65;1.25;;;16.20;90.10;;;;;;5060905;28;20478;-84
2021/08/08 03:43:49;;;;;;;1.60;1.50;;;16.10;90.10;;;;;;5064143;28;20240;-84
2021/08/08 03:46:16;;;;;;;5.60;1.70;;;16.10;90.10;;;;;;5062835;28;20226;-83
2021/08/08 03:48:43;;;;;;;3.95;1.30;;;16.10;90.10;;;;;;5065841;28;20206;-81
2021/08/08 03:51:11;;;;;;;2.47;1.25;;;16.00;90.00;;;;;;5068471;28;20275;-82
2021/08/08 03:53:38;;;;;;;2.13;1.13;;;16.10;90.20;;;;;;5066875;28;20266;-82
2021/08/08 03:56:05;;;;;;;1.30;1.20;;;16.10;90.10;;;;;;5068552;28;20488;-84
2021/08/08 03:58:32;;;;;;;2.78;1.35;;;16.10;90.10;;;;;;5067360;28;20212;-83
2021/08/08 04:01:02;;;;;;;3.03;1.20;;;16.10;90.10;;;;;;5066959;28;20208;-84
2021/08/08 04:03:29;;;;;;;2.45;1.15;;;16.10;90.40;;;;;;5070090;28;20252;-83
2021/08/08 04:05:56;;;;;;;2.63;1.20;;;16.20;90.50;;;;;;5066108;28;20243;-82
2021/08/08 04:08:23;;;;;;;1.17;1.07;;;16.10;90.30;;;;;;5068260;28;20238;-83
2021/08/08 04:10:50;;;;;;;1.85;1.30;;;16.10;90.80;;;;;;5060773;28;20598;-83
2021/08/08 04:13:17;;;;;;;1.77;1.27;;;16.10;90.90;;;;;;5064251;28;20218;-83
2021/08/08 04:15:44;;;;;;;1.80;1.37;;;16.10;91.10;;;;;;5069497;28;20209;-83
2021/08/08 04:18:13;;;;;;;1.60;1.50;;;16.10;91.10;;;;;;5062233;28;20540;-84
2021/08/08 04:20:40;;;;;;;1.73;1.23;;;16.20;91.20;;;;;;5068092;28;20484;-83
2021/08/08 04:23:10;;;;;;;2.40;1.20;;;16.20;91.00;;;;;;5064210;28;20458;-83
2021/08/08 04:25:38;;;;;;;3.65;1.20;;;16.20;90.70;;;;;;5063051;28;20235;-83
2021/08/08 04:28:06;;;;;;;1.30;1.20;;;16.20;90.50;;;;;;5060318;28;20247;-84
2021/08/08 04:30:33;;;;;;;4.13;1.20;;;16.30;90.20;;;;;;5058375;28;20476;-83
2021/08/08 04:33:00;;;;;;;4.40;1.00;;;16.40;90.20;;;;;;5060163;28;20467;-83
2021/08/08 04:35:29;;;;;;;1.63;1.17;;;16.40;89.20;;;;;;5077068;28;20478;-80
2021/08/08 04:37:56;;;;;;;0.80;0.80;;;16.50;87.70;;;;;;5080030;28;20447;-80
2021/08/08 04:40:24;;;;;;;1.77;1.20;;;16.60;86.30;;;;;;5079477;28;20442;-83
2021/08/08 04:42:51;;;;;;;2.30;0.90;;;16.60;85.00;;;;;;5092867;22;20497;-82
2021/08/08 04:45:20;;;;;;;1.80;1.13;;;16.60;83.40;;;;;;5068263;28;21033;-81
2021/08/08 04:47:47;;;;;;;4.00;1.23;;;16.60;82.30;;;;;;5070342;28;20464;-83
2021/08/08 04:50:14;;;;;;;3.10;1.00;;;16.70;83.00;;;;;;5070685;28;20459;-81
2021/08/08 04:52:45;;;;;;;1.70;1.10;;;16.80;80.70;;;;;;5069400;28;20502;-83
2021/08/08 04:55:13;;;;;;;4.37;1.27;;;16.90;79.30;;;;;;5073101;28;20854;-83
2021/08/08 04:57:40;;;;;;;1.80;1.07;;;16.90;79.50;;;;;;5072467;28;20463;-81
2021/08/08 05:00:08;;;;;;;1.33;1.00;;;16.90;77.70;;;;;;5069444;28;20471;-83
2021/08/08 05:02:36;;;;;;;1.53;1.20;;;17.00;77.30;;;;;;5074837;28;20483;-82
2021/08/08 05:05:04;;;;;;;3.50;0.97;;;17.00;76.70;;;;;;5069887;28;20518;-82
2021/08/08 05:07:31;;;;;;;2.73;0.80;;;17.10;75.90;;;;;;5065931;28;20451;-82
2021/08/08 05:09:59;;;;;;;3.53;1.70;;;17.10;75.60;;;;;;5065388;28;20451;-81
2021/08/08 05:12:26;;;;;;;2.00;1.30;;;17.20;74.30;;;;;;5065333;28;20511;-82
2021/08/08 05:14:53;;;;;;;2.10;1.27;;;17.20;74.10;;;;;;5063959;28;20522;-82
2021/08/08 05:17:20;;;;;;;1.33;1.03;;;17.20;74.10;;;;;;5061678;28;20550;-81
2021/08/08 05:19:47;;;;;;;3.07;1.40;;;17.30;74.30;;;;;;5069746;28;20488;-83
2021/08/08 05:22:14;;;;;;;2.87;1.10;;;17.30;74.30;;;;;;5076204;28;20473;-82
2021/08/08 05:24:41;;;;;;;2.93;1.03;;;17.40;75.00;;;;;;5067037;28;20825;-81
2021/08/08 05:27:09;;;;;;;3.80;1.20;;;17.80;71.60;;;;;;5066086;28;20521;-82
2021/08/08 05:29:36;;;;;;;1.20;1.10;;;18.40;67.20;;;;;;5066169;28;20457;-81
2021/08/08 05:32:04;;;;;;;1.17;0.97;;;18.70;65.20;;;;;;5065120;28;20492;-83
2021/08/08 05:34:31;;;;;;;1.33;0.80;;;19.30;62.40;;;;;;5061575;28;20479;-82
2021/08/08 05:37:00;;;;;;;2.40;1.10;;;20.00;58.60;;;;;;5066296;28;20465;-83
2021/08/08 05:39:26;;;;;;;2.17;1.10;;;20.20;56.00;;;;;;5077600;28;20866;-84
2021/08/08 05:41:53;;;;;;;1.70;1.10;;;20.00;56.30;;;;;;5071438;28;20504;-83
2021/08/08 05:44:22;;;;;;;2.77;1.10;;;19.70;58.20;;;;;;5072725;28;20808;-83
2021/08/08 05:46:49;;;;;;;1.00;0.90;;;19.40;58.00;;;;;;5076518;28;20453;-83
2021/08/08 05:49:16;;;;;;;1.63;1.07;;;19.10;60.10;;;;;;5073578;28;20464;-84
2021/08/08 05:51:43;;;;;;;1.30;1.20;;;18.90;60.90;;;;;;5078185;28;20481;-84
2021/08/08 05:54:10;;;;;;;2.20;1.40;;;18.70;62.00;;;;;;5076844;28;20437;-83
2021/08/08 05:56:37;;;;;;;3.90;0.83;;;18.60;63.00;;;;;;5068195;28;20456;-83
2021/08/08 05:59:04;;;;;;;2.37;1.47;;;18.70;62.90;;;;;;5064912;28;20479;-83
2021/08/08 06:01:32;;;;;;;2.20;1.03;;;18.80;62.30;;;;;;5066736;28;20985;-83
2021/08/08 06:03:59;;;;;;;2.53;1.33;;;19.00;61.50;;;;;;5067024;28;20464;-83
2021/08/08 06:06:28;;;;;;;2.00;0.80;;;19.10;60.60;;;;;;5067005;28;20982;-83
2021/08/08 06:08:55;;;;;;;4.80;1.10;;;19.10;60.40;;;;;;5066980;28;20485;-84
2021/08/08 06:11:22;;;;;;;1.90;1.10;;;19.00;60.70;;;;;;5066349;28;20501;-83
2021/08/08 06:13:49;;;;;;;5.03;1.30;;;18.90;61.80;;;;;;5070300;28;20457;-83
2021/08/08 06:16:16;;;;;;;0.90;0.90;;;18.80;62.00;;;;;;5067527;28;20495;-80
2021/08/08 06:18:44;;;;;;;1.37;0.90;;;18.80;62.30;;;;;;5066435;28;20483;-82
2021/08/08 06:21:11;;;;;;;1.77;0.87;;;18.70;62.20;;;;;;5063233;28;20477;-83
2021/08/08 06:23:38;;;;;;;2.33;1.07;;;18.70;62.70;;;;;;5072559;28;20456;-84
2021/08/08 06:26:05;;;;;;;1.67;1.10;;;18.70;62.60;;;;;;5076782;28;20460;-84
2021/08/08 06:28:32;;;;;;;1.20;1.00;;;18.60;62.90;;;;;;5077409;28;20448;-84
2021/08/08 06:30:59;;;;;;;1.43;1.00;;;18.60;63.50;;;;;;5077798;28;20472;-84
2021/08/08 06:33:26;;;;;;;2.27;1.30;;;18.70;63.40;;;;;;5077932;28;20482;-84
2021/08/08 06:35:55;;;;;;;1.27;1.03;;;18.70;63.00;;;;;;5077991;28;20504;-84
2021/08/08 06:38:21;;;;;;;1.53;1.00;;;18.70;63.20;;;;;;5077849;28;20444;-84
2021/08/08 06:40:48;;;;;;;1.33;0.83;;;19.30;61.90;;;;;;5077612;28;20463;-83
2021/08/08 06:43:15;;;;;;;0.93;0.70;;;19.50;60.10;;;;;;5077722;28;20424;-84
2021/08/08 06:45:42;;;;;;;1.50;0.90;;;19.70;59.00;;;;;;5077842;28;20453;-84
2021/08/08 06:48:09;;;;;;;4.80;1.13;;;19.80;58.40;;;;;;5078093;28;20463;-84
2021/08/08 06:50:36;;;;;;;3.60;1.17;;;19.80;58.70;;;;;;5077314;28;20464;-83
2021/08/08 06:53:05;;;;;;;3.07;0.97;;;19.60;58.20;;;;;;5069519;28;20481;-83
2021/08/08 06:55:32;;;;;;;5.27;1.20;;;19.20;60.40;;;;;;5071119;28;20509;-82
2021/08/08 06:57:59;;;;;;;1.00;1.00;;;19.00;61.60;;;;;;5064875;28;20461;-81
2021/08/08 07:00:26;;;;;;;2.90;1.10;;;18.70;63.50;;;;;;5060952;28;20461;-81
2021/08/08 07:02:54;;;;;;;2.30;1.17;;;18.80;63.30;;;;;;5061648;28;20542;-81
2021/08/08 07:05:22;;;;;;;1.73;1.30;;;18.90;62.20;;;;;;5064415;28;20465;-82
2021/08/08 07:07:49;;;;;;;1.90;1.30;;;18.90;62.20;;;;;;5075017;28;20437;-84
2021/08/08 07:10:17;;;;;;;5.80;1.80;;;19.00;62.30;;;;;;5070716;28;20452;-81
2021/08/08 07:12:44;;;;;;;2.57;1.30;;;19.10;61.70;;;;;;5059777;28;20485;-81
2021/08/08 07:15:12;;;;;;;1.20;1.10;;;19.40;60.90;;;;;;5073578;28;20464;-82
2021/08/08 07:17:41;;;;;;;1.70;0.93;;;19.60;60.30;;;;;;5065085;28;20552;-83
2021/08/08 07:20:09;;;;;;;3.97;1.03;;;19.60;58.20;;;;;;5060634;28;20841;-83
2021/08/08 07:22:36;;;;;;;4.53;1.30;;;19.50;59.60;;;;;;5060376;28;20497;-84
2021/08/08 07:25:03;;;;;;;2.73;1.33;;;19.70;59.10;;;;;;5062123;28;20933;-85
2021/08/08 07:27:31;;;;;;;3.30;1.30;;;19.70;58.30;;;;;;5060975;28;20507;-83
2021/08/08 07:29:58;;;;;;;2.20;1.20;;;19.80;58.40;;;;;;5061857;28;20461;-84
2021/08/08 07:32:25;;;;;;;3.40;1.40;;;19.90;58.50;;;;;;5061766;28;20488;-83
2021/08/08 07:34:53;;;;;;;1.97;1.27;;;20.20;57.70;;;;;;5062270;28;20465;-83
2021/08/08 07:37:21;;;;;;;2.70;1.30;;;20.50;55.60;;;;;;5061324;28;20467;-85
2021/08/08 07:39:49;;;;;;;3.13;1.50;;;20.60;53.30;;;;;;5076187;28;20498;-82
2021/08/08 07:42:16;;;;;;;3.83;1.93;;;20.40;54.40;;;;;;5076258;28;20532;-85
2021/08/08 07:44:44;;;;;;;2.63;1.37;;;20.20;52.10;;;;;;5072746;28;20422;-83
2021/08/08 07:47:12;;;;;;;2.47;1.40;;;19.80;53.90;;;;;;5072889;28;20449;-86
2021/08/08 07:49:39;;;;;;;4.27;1.80;;;19.70;55.20;;;;;;5062115;28;20464;-84
2021/08/08 07:52:06;;;;;;;2.60;1.73;;;19.70;55.90;;;;;;5060006;28;20520;-84
2021/08/08 07:54:33;;;;;;;5.57;1.40;;;19.60;57.10;;;;;;5073840;28;20429;-83
2021/08/08 07:57:00;;;;;;;3.03;1.67;;;19.90;54.80;;;;;;5072378;28;20477;-81
2021/08/08 07:59:27;;;;;;;2.97;1.50;;;20.10;53.40;;;;;;5068959;28;20453;-83
2021/08/08 08:01:55;;;;;;;2.57;1.70;;;20.10;53.00;;;;;;5076568;28;20469;-83
2021/08/08 08:04:24;;;;;;;7.20;1.80;;;20.20;52.60;;;;;;5074514;28;20441;-83
2021/08/08 08:06:51;;;;;;;4.37;1.87;;;20.20;53.20;;;;;;5065119;28;20458;-83
2021/08/08 08:09:18;;;;;;;4.80;1.80;;;20.30;52.90;;;;;;5065477;28;20463;-83
2021/08/08 08:11:45;;;;;;;1.83;1.73;;;20.30;52.50;;;;;;5068398;28;20493;-82
2021/08/08 08:14:13;;;;;;;2.00;1.70;;;20.30;52.20;;;;;;5073446;28;20460;-84
2021/08/08 08:16:39;;;;;;;4.57;1.53;;;20.30;51.60;;;;;;5078526;28;20460;-84
2021/08/08 08:19:08;;;;;;;2.60;1.40;;;20.40;51.80;;;;;;5076401;28;20453;-81
2021/08/08 08:21:35;;;;;;;5.23;2.00;;;20.40;51.60;;;;;;5074153;28;20472;-81
2021/08/08 08:24:02;;;;;;;4.50;3.07;;;20.40;51.40;;;;;;5075366;28;20456;-81
2021/08/08 08:26:29;;;;;;;2.63;1.97;;;20.40;51.90;;;;;;5075666;28;20893;-83
2021/08/08 08:28:56;;;;;;;2.70;1.83;;;20.60;51.70;;;;;;5072548;28;20441;-83
2021/08/08 08:31:23;;;;;;;4.10;1.93;;;20.80;50.40;;;;;;5069289;28;20478;-83
2021/08/08 08:33:52;;;;;;;3.40;1.33;;;21.00;49.80;;;;;;5068168;28;20801;-83
2021/08/08 08:36:20;;;;;;;2.50;1.77;;;21.00;49.80;;;;;;5068550;28;20454;-84
2021/08/08 08:38:47;;;;;;;4.60;1.70;;;21.10;49.90;;;;;;5066777;28;20820;-83
2021/08/08 08:41:16;;;;;;;2.13;1.70;;;21.00;49.80;;;;;;5066226;28;20457;-83
2021/08/08 08:43:44;;;;;;;2.80;2.00;;;21.00;49.80;;;;;;5067604;28;20462;-83
2021/08/08 08:46:11;;;;;;;6.40;1.80;;;21.00;49.80;;;;;;5072756;28;20455;-83
2021/08/08 08:48:40;;;;;;;1.87;1.60;;;20.90;49.70;;;;;;5074619;28;20447;-83
2021/08/08 08:51:08;;;;;;;4.60;1.70;;;21.10;49.90;;;;;;5079783;28;20484;-84
2021/08/08 08:53:36;;;;;;;2.60;1.50;;;21.10;49.90;;;;;;5078838;28;20430;-84
2021/08/08 08:56:05;;;;;;;3.90;2.00;;;21.20;50.00;;;;;;5079781;28;20464;-82
2021/08/08 08:58:32;;;;;;;7.50;2.23;;;21.10;49.90;;;;;;5079263;28;20464;-84
2021/08/08 09:00:59;;;;;;;4.47;2.13;;;20.90;50.00;;;;;;5078440;28;20524;-83
2021/08/08 09:03:26;;;;;;;5.63;2.03;;;20.80;53.70;;;;;;5078081;28;20460;-85
2021/08/08 09:05:53;;;;;;;2.73;2.30;;;20.50;53.40;;;;;;5078792;28;20453;-79
2021/08/08 09:08:20;;;;;;;7.50;2.17;;;20.50;53.60;;;;;;5068387;28;20826;-83
2021/08/08 09:11:01;;;;;;;5.23;2.70;;;20.50;52.60;;;;;;5066244;28;20487;-83
2021/08/08 09:13:27;;;;;;;5.43;1.77;;;20.40;52.20;;;;;;5067959;28;20598;-82
2021/08/08 09:15:55;;;;;;;7.37;2.40;;;20.50;49.30;;;;;;5070510;28;20505;-84
2021/08/08 09:18:23;;;;;;;5.27;2.33;;;20.60;49.40;;;;;;5070072;28;20528;-82
2021/08/08 09:20:52;;;;;;;7.63;2.33;;;20.90;49.70;;;;;;5070012;28;20515;-84
2021/08/08 09:23:20;;;;;;;4.93;2.20;;;21.20;48.50;;;;;;5061576;28;20565;-84
2021/08/08 09:25:58;;;;;;;3.17;2.20;;;21.30;47.60;;;;;;5060727;28;20457;-84
2021/08/08 09:28:29;;;;;;;3.30;2.07;;;21.60;46.90;;;;;;5060794;28;20464;-82
2021/08/08 09:30:57;;;;;;;5.67;2.80;;;21.60;47.50;;;;;;5065345;28;20494;-82
2021/08/08 09:33:24;;;;;;;3.90;2.30;;;21.90;46.00;;;;;;5067715;28;20450;-82
2021/08/08 09:35:53;;;;;;;3.53;2.07;;;21.90;45.60;;;;;;5065654;28;20873;-83
2021/08/08 09:38:21;;;;;;;1.93;1.77;;;22.20;45.40;;;;;;5066784;28;20443;-83
2021/08/08 09:40:59;;;;;;;4.93;2.37;;;22.60;43.40;;;;;;5065364;28;20464;-82
2021/08/08 09:43:27;;;;;;;3.17;1.73;;;22.70;43.00;;;;;;5064670;28;20485;-82
2021/08/08 09:45:54;;;;;;;5.20;2.17;;;22.40;44.10;;;;;;5064624;28;20975;-82
2021/08/08 09:48:21;;;;;;;6.10;2.20;;;22.60;43.80;;;;;;5074722;28;20428;-82
2021/08/08 09:50:49;;;;;;;5.40;2.10;;;22.90;43.20;;;;;;5074274;28;20456;-83
2021/08/08 09:53:18;;;;;;;4.03;2.07;;;22.90;42.30;;;;;;5074184;28;20481;-84
2021/08/08 09:55:45;;;;;;;3.67;2.03;;;22.70;41.60;;;;;;5074611;28;20930;-83
2021/08/08 09:58:21;;;;;;;2.20;2.00;;;22.70;41.30;;;;;;5067569;28;20441;-84
2021/08/08 10:00:49;;;;;;;3.20;2.10;;;23.00;41.60;;;;;;5066102;28;20484;-83
2021/08/08 10:03:17;;;;;;;5.50;1.70;;;22.80;41.40;;;;;;5067092;28;20448;-83
2021/08/08 10:05:46;;;;;;;3.00;2.10;;;22.50;41.10;;;;;;5066611;28;20461;-84
2021/08/08 10:08:15;;;;;;;6.00;2.17;;;22.30;41.40;;;;;;5067162;28;20827;-82
2021/08/08 10:10:44;;;;;;;6.07;2.30;;;22.10;42.50;;;;;;5066841;28;20515;-82
2021/08/08 10:13:39;;;;;;;4.33;1.77;;;22.20;43.60;;;;;;5069173;28;20455;-84
2021/08/08 10:16:09;;;;;;;4.70;2.03;;;22.40;42.60;;;;;;5070320;28;20445;-83
2021/08/08 10:18:40;;;;;;;2.53;2.33;;;22.30;43.10;;;;;;5068058;28;20510;-83
2021/08/08 10:21:08;;;;;;;3.87;2.10;;;22.50;42.30;;;;;;5064778;28;20438;-82
2021/08/08 10:23:37;;;;;;;7.13;2.30;;;22.40;42.70;;;;;;5064870;28;20969;-83
2021/08/08 10:26:05;;;;;;;2.73;1.90;;;22.40;44.00;;;;;;5064713;28;20513;-84
2021/08/08 10:28:34;;;;;;;4.77;2.37;;;22.00;44.30;;;;;;5062011;28;20462;-84
2021/08/08 10:31:02;;;;;;;3.53;1.97;;;21.90;44.50;;;;;;5065174;28;20479;-82
2021/08/08 10:33:29;;;;;;;3.20;2.33;;;21.80;46.10;;;;;;5063752;28;20479;-83
2021/08/08 10:35:56;;;;;;;2.93;2.50;;;21.70;48.60;;;;;;5064832;28;20459;-81
2021/08/08 10:38:23;;;;;;;4.70;2.37;;;21.30;50.10;;;;;;5062538;28;20435;-81
2021/08/08 10:40:50;;;;;;;3.43;1.90;;;20.90;54.70;;;;;;5063813;28;20474;-82
2021/08/08 10:43:27;;;;;;;2.27;1.87;;;20.80;52.20;;;;;;5106101;22;20483;-84
2021/08/08 10:46:05;;;;;;;2.73;1.97;;;21.00;51.30;;;;;;5086191;28;20462;-83
2021/08/08 10:48:36;;;;;;;4.23;1.90;;;21.10;49.90;;;;;;5086402;28;20457;-83
2021/08/08 10:51:03;;;;;;;2.63;1.63;;;20.90;50.90;;;;;;5084270;28;20476;-84
2021/08/08 10:53:32;;;;;;;3.70;1.67;;;21.10;51.40;;;;;;5085848;28;20457;-83
2021/08/08 10:56:08;;;;;;;2.27;1.73;;;21.50;50.30;;;;;;5087601;28;20926;-83
2021/08/08 10:58:37;;;;;;;5.30;2.73;;;21.70;46.70;;;;;;5087283;28;20459;-83
2021/08/08 11:01:17;;;;;;;4.23;1.90;;;22.00;48.60;;;;;;5081859;28;20476;-82
2021/08/08 11:03:54;;;;;;;4.50;2.30;;;21.80;49.30;;;;;;5088178;28;20451;-82
2021/08/08 11:06:23;;;;;;;4.30;2.20;;;21.70;48.30;;;;;;5096186;28;20446;-82
2021/08/08 11:08:53;;;;;;;4.23;2.53;;;21.60;50.30;;;;;;5093766;28;20461;-83
2021/08/08 11:11:25;;;;;;;2.80;2.07;;;21.60;51.00;;;;;;5087802;28;20436;-83
2021/08/08 11:13:52;;;;;;;3.50;2.10;;;21.70;50.50;;;;;;5087954;28;20501;-82
2021/08/08 11:16:21;;;;;;;4.67;2.27;;;22.00;49.60;;;;;;5089276;28;20428;-82
2021/08/08 11:18:57;;;;;;;1.87;1.67;;;22.10;48.70;;;;;;5087857;28;20433;-82
2021/08/08 11:21:26;;;;;;;2.80;1.87;;;22.00;47.70;;;;;;5086776;28;20413;-83
2021/08/08 11:23:57;;;;;;;2.60;2.00;;;22.10;47.00;;;;;;5086999;28;20463;-83
2021/08/08 11:26:24;;;;;;;1.93;1.73;;;22.00;47.50;;;;;;5087673;28;20452;-83
2021/08/08 11:28:53;;;;;;;4.80;2.70;;;21.70;48.30;;;;;;5087284;28;20428;-83
2021/08/08 11:31:23;;;;;;;3.20;2.10;;;21.50;49.10;;;;;;5084587;28;20460;-82
2021/08/08 11:33:56;;;;;;;3.10;2.40;;;21.20;50.00;;;;;;5085274;28;20904;-84
2021/08/08 11:36:28;;;;;;;2.00;1.90;;;20.90;49.70;;;;;;5084895;28;20502;-83
2021/08/08 11:38:56;;;;;;;3.53;2.80;;;20.30;53.00;;;;;;5081973;28;20835;-79
2021/08/08 11:41:24;;;;;;;5.23;3.00;;;19.60;63.00;;;;;;5080014;28;20463;-81
2021/08/08 11:44:05;;;;;;;5.63;2.80;;;18.90;75.70;;;;;;5084933;28;20471;-80
2021/08/08 11:46:34;;;;;;;6.27;3.10;;;18.30;78.70;;;;;;5091470;28;20450;-82
2021/08/08 11:49:01;;;;;;;6.60;2.93;;;18.10;84.90;;;;;;5094732;28;20438;-82
2021/08/08 11:51:28;;;;;;;5.83;3.60;;;17.90;86.20;;;;;;5092092;28;20475;-82
2021/08/08 11:53:56;;;;;;;6.27;3.00;;;17.90;86.70;;;;;;5093673;28;20493;-82
2021/08/08 11:56:28;;;;;;;4.13;2.13;;;18.20;83.80;;;;;;5096593;28;20446;-83
2021/08/08 11:58:57;;;;;;;5.37;2.50;;;18.40;81.10;;;;;;5095673;28;20534;-81
2021/08/08 12:01:24;;;;;;;2.30;2.10;;;18.50;82.50;;;;;;5089485;28;20425;-82
2021/08/08 12:03:53;;;;;;;4.63;2.50;;;18.70;83.00;;;;;;5087219;28;20479;-83
2021/08/08 12:06:22;;;;;;;4.70;2.10;;;19.10;82.10;;;;;;5082337;28;20503;-82
2021/08/08 12:08:51;;;;;;;3.80;2.00;;;19.30;76.10;;;;;;5083404;28;20464;-83
2021/08/08 12:11:20;;;;;;;2.60;2.30;;;19.40;74.20;;;;;;5084938;28;20513;-84
2021/08/08 12:13:59;;;;;;;4.70;2.40;;;19.50;72.10;;;;;;5085348;28;20574;-81
2021/08/08 12:16:33;;;;;;;2.80;2.00;;;19.40;71.80;;;;;;5082270;28;20478;-84
2021/08/08 12:19:02;;;;;;;2.30;1.77;;;19.60;71.80;;;;;;5082974;28;20452;-82
2021/08/08 12:21:35;;;;;;;2.93;1.83;;;20.10;69.20;;;;;;5089039;28;20443;-81
2021/08/08 12:24:07;;;;;;;2.47;1.80;;;20.50;68.80;;;;;;5096495;28;20510;-81
2021/08/08 12:26:35;;;;;;;2.37;1.70;;;20.80;62.00;;;;;;5096657;28;20450;-81
2021/08/08 12:29:04;;;;;;;3.60;1.70;;;20.70;59.30;;;;;;5099069;28;20448;-80
2021/08/08 12:31:41;;;;;;;2.10;1.70;;;20.70;60.00;;;;;;5098743;28;20445;-81
2021/08/08 12:34:11;;;;;;;3.03;1.83;;;20.70;59.30;;;;;;5097808;28;20557;-81
2021/08/08 12:36:42;;;;;;;3.47;1.97;;;20.90;59.40;;;;;;5090857;28;20486;-85
2021/08/08 12:39:10;;;;;;;2.40;1.70;;;21.10;56.80;;;;;;5084970;28;20434;-82
2021/08/08 12:41:39;;;;;;;2.20;2.00;;;21.20;57.30;;;;;;5083315;28;20493;-82
2021/08/08 12:44:07;;;;;;;2.33;2.10;;;21.20;55.50;;;;;;5083239;28;20927;-81
2021/08/08 12:46:37;;;;;;;4.20;1.90;;;21.40;56.90;;;;;;5079648;28;20470;-81
2021/08/08 12:49:06;;;;;;;2.73;1.93;;;21.50;52.80;;;;;;5078768;28;20561;-83
2021/08/08 12:51:34;;;;;;;5.17;2.10;;;21.40;52.70;;;;;;5079030;28;20523;-84
2021/08/08 12:54:01;;;;;;;2.90;2.00;;;21.50;53.40;;;;;;5088548;28;20527;-82